Time;durP1;ratioP1;P1;durP2;ratioP2;P2;SDS_P1;SDS_P2;PMS_P1;PMS_P2;Temp;Humidity;BMP_temperature;BMP_pressure;BME280_temperature;BME280_humidity;BME280_pressure;Samples;Min_cycle;Max_cycle;Signal;HPM_P1;HPM_P2
2022/08/01 00:00:11;;;;;;;2.97;2.70;;;;;;;17.65;100.00;101261.97;2071999;28;25054;-71
2022/08/01 00:01:13;;;;;;;3.03;2.42;;;;;;;17.67;100.00;101259.19;2072308;28;20128;-71
2022/08/01 00:02:15;;;;;;;4.60;2.47;;;;;;;17.66;100.00;101260.16;2070777;28;26040;-71
2022/08/01 00:03:17;;;;;;;4.22;2.33;;;;;;;17.66;100.00;101257.44;2071170;28;34101;-72
2022/08/01 00:04:19;;;;;;;3.25;2.70;;;;;;;17.65;100.00;101261.09;2071631;28;30504;-71
2022/08/01 00:05:20;;;;;;;2.70;2.50;;;;;;;17.66;100.00;101260.16;2072110;28;26647;-71
2022/08/01 00:06:22;;;;;;;2.80;2.55;;;;;;;17.63;100.00;101263.88;2071681;28;30474;-71
2022/08/01 00:07:24;;;;;;;3.00;2.47;;;;;;;17.65;100.00;101258.41;2071893;28;30991;-72
2022/08/01 00:08:26;;;;;;;4.18;2.90;;;;;;;17.64;100.00;101256.63;2071475;28;41251;-71
2022/08/01 00:09:27;;;;;;;3.40;2.90;;;;;;;17.62;100.00;101261.25;2071920;28;30033;-72
2022/08/01 00:10:29;;;;;;;4.93;2.85;;;;;;;17.62;100.00;101263.94;2062989;28;26652;-71
2022/08/01 00:11:31;;;;;;;3.33;2.60;;;;;;;17.63;100.00;101257.59;2063150;28;37096;-71
2022/08/01 00:12:33;;;;;;;3.13;2.83;;;;;;;17.64;100.00;101264.75;2071558;28;31922;-71
2022/08/01 00:13:35;;;;;;;4.05;3.13;;;;;;;17.62;100.00;101261.25;2071959;28;26082;-71
2022/08/01 00:14:37;;;;;;;3.72;3.30;;;;;;;17.62;100.00;101255.81;2072132;28;21197;-72
2022/08/01 00:15:42;;;;;;;3.47;3.17;;;;;;;17.61;100.00;101265.78;2071651;28;25085;-71
2022/08/01 00:16:54;;;;;;;3.17;2.75;;;;;;;17.62;100.00;101263.94;2071554;28;33905;-71
2022/08/01 00:17:56;;;;;;;4.85;3.67;;;;;;;17.61;100.00;101262.22;2072165;28;23499;-71
2022/08/01 00:18:58;;;;;;;3.35;2.90;;;;;;;17.61;100.00;101260.38;2071358;28;40908;-72
2022/08/01 00:19:59;;;;;;;4.05;3.42;;;;;;;17.63;100.00;101268.44;2072200;28;21002;-71
2022/08/01 00:21:03;;;;;;;4.15;3.75;;;;;;;17.61;100.00;101264.91;2071532;28;20053;-71
2022/08/01 00:22:05;;;;;;;3.60;3.33;;;;;;;17.62;100.00;101264.84;2071688;28;32285;-71
2022/08/01 00:23:07;;;;;;;4.10;3.40;;;;;;;17.62;100.00;101267.56;2070860;28;35389;-71
2022/08/01 00:24:09;;;;;;;3.45;3.15;;;;;;;17.63;100.00;101268.44;2071021;28;33231;-71
2022/08/01 00:25:15;;;;;;;6.32;3.72;;;;;;;17.62;100.00;101255.81;2072530;28;20886;-71
2022/08/01 00:26:19;;;;;;;4.00;3.53;;;;;;;17.63;100.00;101263.00;2071789;28;33643;-71
2022/08/01 00:27:24;;;;;;;5.35;4.32;;;;;;;17.62;100.00;101255.81;2063038;28;24112;-71
2022/08/01 00:28:26;;;;;;;4.82;4.28;;;;;;;17.61;100.00;101265.78;2063791;28;25547;-71
2022/08/01 00:29:27;;;;;;;4.95;3.83;;;;;;;17.60;100.00;101257.72;2071556;28;25785;-71
2022/08/01 00:30:49;;;;;;;4.90;4.30;;;;;;;17.61;100.00;101267.63;2079127;28;20038;-71
2022/08/01 00:31:52;;;;;;;5.70;4.65;;;;;;;17.59;100.00;101262.28;2079417;28;20803;-72
2022/08/01 00:32:54;;;;;;;4.50;4.10;;;;;;;17.60;100.00;101279.38;2072037;28;20116;-71
2022/08/01 00:33:55;;;;;;;5.43;4.65;;;;;;;17.60;100.00;101273.97;2067019;28;24217;-72
2022/08/01 00:34:57;;;;;;;6.88;4.68;;;;;;;17.58;100.00;101270.47;2071344;28;32842;-71
2022/08/01 00:35:59;;;;;;;7.50;4.93;;;;;;;17.59;100.00;101273.09;2071397;28;29351;-71
2022/08/01 00:37:03;;;;;;;9.65;5.05;;;;;;;17.57;100.00;101275.00;2071133;28;20038;-71
2022/08/01 00:38:05;;;;;;;6.53;4.80;;;;;;;17.56;100.00;101268.69;2070489;28;33835;-71
2022/08/01 00:39:09;;;;;;;8.18;5.55;;;;;;;17.56;100.00;101271.41;2071771;28;28795;-71
2022/08/01 00:40:12;;;;;;;5.43;4.53;;;;;;;17.57;100.00;101275.00;2071014;28;40596;-71
2022/08/01 00:41:16;;;;;;;6.80;5.65;;;;;;;17.56;100.00;101268.69;2072040;28;20999;-70
2022/08/01 00:42:18;;;;;;;7.05;5.85;;;;;;;17.56;100.00;101273.25;2071701;28;28217;-71
2022/08/01 00:43:22;;;;;;;7.63;5.30;;;;;;;17.57;100.00;101266.88;2071587;28;27152;-71
2022/08/01 00:44:24;;;;;;;7.95;4.75;;;;;;;17.55;100.00;101277.78;2071434;28;24554;-70
2022/08/01 00:45:25;;;;;;;7.32;4.70;;;;;;;17.56;100.00;101275.94;2071807;28;34169;-71
2022/08/01 00:46:27;;;;;;;6.47;5.28;;;;;;;17.55;100.00;101272.38;2071114;28;32841;-71
2022/08/01 00:47:29;;;;;;;6.88;4.95;;;;;;;17.55;100.00;101275.06;2071520;28;27223;-70
2022/08/01 00:48:31;;;;;;;5.20;4.70;;;;;;;17.55;100.00;101276.91;2071918;28;33029;-70
2022/08/01 00:49:33;;;;;;;7.45;6.00;;;;;;;17.55;100.00;101280.50;2071907;28;20892;-70
2022/08/01 00:50:35;;;;;;;6.03;5.28;;;;;;;17.55;100.00;101276.91;2070627;28;39314;-70
2022/08/01 00:51:40;;;;;;;5.18;4.60;;;;;;;17.55;100.00;101279.63;2071708;28;20050;-70
2022/08/01 00:52:45;;;;;;;6.00;5.25;;;;;;;17.55;100.00;101275.06;2070727;28;27848;-70
2022/08/01 00:53:53;;;;;;;8.30;5.28;;;;;;;17.55;100.00;101275.06;2070806;28;34411;-70
2022/08/01 00:54:55;;;;;;;7.28;5.88;;;;;;;17.55;100.00;101288.63;2070667;28;24798;-70
2022/08/01 00:55:57;;;;;;;6.65;5.13;;;;;;;17.55;100.00;101277.78;2071638;28;30769;-70
2022/08/01 00:56:59;;;;;;;7.43;6.55;;;;;;;17.55;100.00;101283.19;2071126;28;32723;-70
2022/08/01 00:58:03;;;;;;;10.07;6.22;;;;;;;17.54;100.00;101289.56;2071356;28;24292;-70
2022/08/01 00:59:10;;;;;;;6.88;6.18;;;;;;;17.53;100.00;101276.97;2079191;28;26279;-70
2022/08/01 01:00:13;;;;;;;7.32;5.90;;;;;;;17.53;100.00;101285.09;2078176;28;25953;-70
2022/08/01 01:01:15;;;;;;;9.90;6.85;;;;;;;17.53;100.00;101281.50;2070334;28;24594;-70
2022/08/01 01:02:18;;;;;;;9.95;6.38;;;;;;;17.51;100.00;101281.56;2072682;28;20082;-71
2022/08/01 01:03:24;;;;;;;9.23;5.65;;;;;;;17.52;100.00;101283.34;2072662;28;29334;-70
2022/08/01 01:04:46;;;;;;;8.82;6.07;;;;;;;17.53;100.00;101284.19;2073048;28;20088;-70
2022/08/01 01:06:23;;;;;;;8.10;6.18;;;;;;;17.54;100.00;101283.28;2072737;28;27262;-70
2022/08/01 01:07:31;;;;;;;7.43;6.25;;;;;;;17.52;100.00;101288.75;2073164;28;20124;-70
2022/08/01 01:08:43;;;;;;;7.68;6.03;;;;;;;17.52;100.00;101288.75;2072941;28;29079;-70
2022/08/01 01:09:57;;;;;;;8.40;6.32;;;;;;;17.51;100.00;101286.97;2064025;28;30853;-70
2022/08/01 01:11:14;;;;;;;6.90;5.22;;;;;;;17.50;100.00;101285.25;2066756;28;31865;-70
2022/08/01 01:12:37;;;;;;;7.03;5.22;;;;;;;17.51;100.00;101281.56;2075951;28;32652;-70
2022/08/01 01:13:55;;;;;;;7.65;6.32;;;;;;;17.50;100.00;101279.81;2077275;28;39634;-70
2022/08/01 01:15:07;;;;;;;7.68;6.35;;;;;;;17.50;100.00;101279.81;2072326;28;30974;-70
2022/08/01 01:16:14;;;;;;;7.47;6.60;;;;;;;17.50;100.00;101287.94;2072663;28;20097;-70
2022/08/01 01:17:24;;;;;;;10.82;6.22;;;;;;;17.51;100.00;101286.09;2072837;28;36584;-70
2022/08/01 01:18:38;;;;;;;7.68;5.85;;;;;;;17.53;100.00;101287.81;2073142;28;29453;-70
2022/08/01 01:19:47;;;;;;;7.85;6.10;;;;;;;17.52;100.00;101283.34;2072781;28;29023;-71
2022/08/01 01:21:04;;;;;;;7.03;6.10;;;;;;;17.52;100.00;101285.16;2072172;28;39056;-71
2022/08/01 01:22:37;;;;;;;7.95;5.78;;;;;;;17.52;100.00;101283.34;2067210;28;32654;-71
2022/08/01 01:24:17;;;;;;;8.73;6.13;;;;;;;17.53;100.00;101284.19;2072399;28;34282;-71
2022/08/01 01:25:42;;;;;;;7.63;5.53;;;;;;;17.53;100.00;101287.81;2063487;28;29603;-71
2022/08/01 01:27:11;;;;;;;9.23;6.63;;;;;;;17.53;100.00;101297.75;2072749;28;35810;-70
2022/08/01 01:28:46;;;;;;;7.43;5.55;;;;;;;17.52;100.00;101293.28;2072921;28;26902;-71
2022/08/01 01:29:55;;;;;;;5.85;5.03;;;;;;;17.48;100.00;101292.56;2063741;28;30371;-70
2022/08/01 01:31:01;;;;;;;6.28;3.85;;;;;;;17.46;100.00;101294.47;2066236;28;28175;-70
2022/08/01 01:32:16;;;;;;;4.05;3.60;;;;;;;17.43;100.00;101299.13;2071874;28;20042;-71
2022/08/01 01:33:20;;;;;;;3.92;3.63;;;;;;;17.42;100.00;101292.81;2073340;28;20169;-70
2022/08/01 01:34:23;;;;;;;4.82;4.05;;;;;;;17.41;100.00;101299.19;2072122;28;27218;-71
2022/08/01 01:35:35;;;;;;;4.60;3.42;;;;;;;17.41;100.00;101303.72;2065769;28;21145;-70
2022/08/01 01:36:39;;;;;;;4.63;3.65;;;;;;;17.40;100.00;101302.84;2074046;28;24970;-70
2022/08/01 01:37:43;;;;;;;4.65;3.53;;;;;;;17.40;100.00;101300.13;2079490;28;20111;-70
2022/08/01 01:38:49;;;;;;;4.90;4.38;;;;;;;17.40;100.00;101300.13;2073113;28;20895;-71
2022/08/01 01:39:53;;;;;;;4.88;3.63;;;;;;;17.41;100.00;101301.00;2072013;28;32304;-71
2022/08/01 01:40:59;;;;;;;4.95;3.92;;;;;;;17.40;100.00;101307.38;2064699;28;27279;-71
2022/08/01 01:42:04;;;;;;;4.20;3.80;;;;;;;17.39;100.00;101303.81;2072410;28;30022;-71
2022/08/01 01:43:11;;;;;;;5.60;4.35;;;;;;;17.39;100.00;101303.81;2072037;28;27794;-71
2022/08/01 01:44:13;;;;;;;6.95;4.45;;;;;;;17.41;100.00;101311.84;2072872;28;20038;-71
2022/08/01 01:45:16;;;;;;;4.57;4.18;;;;;;;17.40;100.00;101307.38;2071932;28;40902;-71
2022/08/01 01:46:23;;;;;;;8.77;5.15;;;;;;;17.40;100.00;101315.50;2071446;28;38380;-71
2022/08/01 01:47:30;;;;;;;6.18;4.68;;;;;;;17.40;100.00;101313.69;2065888;28;20082;-71
2022/08/01 01:48:34;;;;;;;5.60;4.80;;;;;;;17.41;100.00;101311.84;2073406;28;30426;-71
2022/08/01 01:49:41;;;;;;;6.57;5.50;;;;;;;17.39;100.00;101311.94;2064132;28;23148;-70
2022/08/01 01:50:47;;;;;;;7.35;5.53;;;;;;;17.40;100.00;101315.50;2072184;28;31741;-70
2022/08/01 01:51:50;;;;;;;7.50;5.30;;;;;;;17.40;100.00;101310.97;2079191;28;30703;-69
2022/08/01 01:52:59;;;;;;;9.15;4.82;;;;;;;17.40;100.00;101321.78;2064744;28;27422;-72
2022/08/01 01:54:01;;;;;;;5.45;4.90;;;;;;;17.40;100.00;101316.38;2073071;28;32925;-70
2022/08/01 01:55:07;;;;;;;7.18;5.03;;;;;;;17.39;100.00;101314.63;2080301;28;24981;-71
2022/08/01 01:56:11;;;;;;;5.72;5.10;;;;;;;17.40;100.00;101321.78;2080088;28;29733;-71
2022/08/01 01:57:17;;;;;;;5.57;4.82;;;;;;;17.39;100.00;101317.34;2063178;28;39607;-70
2022/08/01 01:58:21;;;;;;;5.40;4.82;;;;;;;17.39;100.00;101319.16;2064908;28;30488;-70
2022/08/01 01:59:28;;;;;;;6.40;5.03;;;;;;;17.36;100.00;101310.22;2071589;28;29678;-70
2022/08/01 02:00:32;;;;;;;6.32;5.13;;;;;;;17.37;100.00;101313.81;2071360;28;33039;-71
2022/08/01 02:01:35;;;;;;;4.97;4.47;;;;;;;17.36;100.00;101315.63;2071617;28;24601;-71
2022/08/01 02:02:59;;;;;;;7.28;4.90;;;;;;;17.34;100.00;101316.66;2072596;28;20047;-71
2022/08/01 02:04:02;;;;;;;4.60;4.20;;;;;;;17.35;100.00;101318.41;2067128;28;31226;-71
2022/08/01 02:05:11;;;;;;;4.82;4.00;;;;;;;17.34;100.00;101314.84;2064032;28;35000;-71
2022/08/01 02:06:15;;;;;;;7.85;4.68;;;;;;;17.34;100.00;101317.53;2065444;28;20168;-70
2022/08/01 02:07:23;;;;;;;5.38;4.88;;;;;;;17.34;100.00;101316.66;2065069;28;28754;-71
2022/08/01 02:08:29;;;;;;;4.97;4.47;;;;;;;17.33;100.00;101309.47;2065836;28;26605;-70
2022/08/01 02:09:33;;;;;;;4.75;4.30;;;;;;;17.33;100.00;101323.88;2065195;28;31004;-71
2022/08/01 02:10:37;;;;;;;7.45;4.95;;;;;;;17.32;100.00;101313.16;2064901;28;27424;-71
2022/08/01 02:11:40;;;;;;;5.20;4.50;;;;;;;17.31;100.00;101317.66;2064314;28;32901;-72
2022/08/01 02:13:03;;;;;;;5.80;4.43;;;;;;;17.30;100.00;101312.31;2066817;28;36475;-71
2022/08/01 02:14:08;;;;;;;4.95;4.40;;;;;;;17.30;100.00;101313.22;2070750;28;41309;-71
2022/08/01 02:15:12;;;;;;;5.45;4.43;;;;;;;17.30;100.00;101309.63;2072645;28;20078;-70
2022/08/01 02:16:16;;;;;;;4.90;3.90;;;;;;;17.31;100.00;101319.50;2063852;28;28114;-71
2022/08/01 02:17:20;;;;;;;4.95;3.28;;;;;;;17.25;100.00;101312.56;2064184;28;39352;-70
2022/08/01 02:18:25;;;;;;;2.72;2.53;;;;;;;17.21;100.00;101310.94;2071964;28;21956;-70
2022/08/01 02:19:27;;;;;;;3.97;3.00;;;;;;;17.20;100.00;101313.72;2072599;28;34863;-70
2022/08/01 02:20:30;;;;;;;3.65;2.92;;;;;;;17.20;100.00;101316.41;2071708;28;29849;-70
2022/08/01 02:21:53;;;;;;;3.03;2.67;;;;;;;17.16;100.00;101311.13;2064283;28;23306;-71
2022/08/01 02:23:17;;;;;;;2.92;2.67;;;;;;;17.16;100.00;101316.53;2072215;28;28483;-70
2022/08/01 02:24:28;;;;;;;3.80;3.08;;;;;;;17.14;100.00;101314.88;2071926;28;27731;-70
2022/08/01 02:25:42;;;;;;;2.92;2.67;;;;;;;17.12;100.00;101314.94;2066822;28;26312;-70
2022/08/01 02:27:17;;;;;;;3.13;2.83;;;;;;;17.12;100.00;101314.94;2069786;28;20043;-70
2022/08/01 02:29:02;;;;;;;4.75;2.67;;;;;;;17.10;100.00;101313.22;2069547;28;20128;-70
2022/08/01 02:30:12;;;;;;;2.80;2.45;;;;;;;17.07;100.00;101318.78;2071772;28;32031;-71
2022/08/01 02:31:18;;;;;;;2.72;2.30;;;;;;;17.05;100.00;101320.66;2071066;28;37472;-71
2022/08/01 02:32:33;;;;;;;2.60;2.40;;;;;;;17.04;100.00;101318.91;2064964;28;27283;-71
2022/08/01 02:33:42;;;;;;;3.80;2.38;;;;;;;17.04;100.00;101322.50;2071689;28;39242;-70
2022/08/01 02:34:49;;;;;;;2.53;2.33;;;;;;;17.00;100.00;101323.56;2071585;28;26266;-71
2022/08/01 02:35:56;;;;;;;2.60;2.22;;;;;;;16.99;100.00;101329.91;2064793;28;34541;-71
2022/08/01 02:37:18;;;;;;;2.53;2.10;;;;;;;16.98;100.00;101325.47;2068339;28;20055;-70
2022/08/01 02:38:25;;;;;;;2.88;1.63;;;;;;;16.92;100.00;101321.22;2071791;28;29579;-71
2022/08/01 02:39:30;;;;;;;4.05;2.15;;;;;;;16.91;100.00;101318.56;2071892;28;30328;-70
2022/08/01 02:40:37;;;;;;;3.70;2.20;;;;;;;16.91;100.00;101321.28;2064932;28;24608;-71
2022/08/01 02:41:47;;;;;;;2.13;1.92;;;;;;;16.88;100.00;101318.69;2072017;28;32751;-71
2022/08/01 02:42:52;;;;;;;2.58;2.38;;;;;;;16.88;100.00;101319.56;2071649;28;27228;-70
2022/08/01 02:44:00;;;;;;;3.97;2.35;;;;;;;16.85;100.00;101311.59;2071793;28;32542;-71
2022/08/01 02:45:08;;;;;;;3.85;2.42;;;;;;;16.87;100.00;101325.03;2072126;28;20043;-71
2022/08/01 02:46:20;;;;;;;4.20;2.63;;;;;;;16.86;100.00;101324.16;2065292;28;24973;-71
2022/08/01 02:47:24;;;;;;;2.63;2.40;;;;;;;16.87;100.00;101330.44;2057842;28;23991;-72
2022/08/01 02:48:30;;;;;;;3.80;2.45;;;;;;;16.87;100.00;101325.03;2057867;28;32634;-71
2022/08/01 02:49:36;;;;;;;3.15;2.60;;;;;;;16.86;100.00;101328.72;2064560;28;30983;-71
2022/08/01 02:50:42;;;;;;;6.22;2.90;;;;;;;16.86;100.00;101323.31;2072154;28;20043;-70
2022/08/01 02:51:46;;;;;;;6.18;3.22;;;;;;;16.85;100.00;101325.13;2071484;28;33750;-71
2022/08/01 02:52:52;;;;;;;4.80;3.00;;;;;;;16.86;100.00;101331.41;2064542;28;27336;-71
2022/08/01 02:53:55;;;;;;;2.63;2.42;;;;;;;16.85;100.00;101329.63;2064366;28;28715;-70
2022/08/01 02:54:59;;;;;;;4.05;3.00;;;;;;;16.86;100.00;101334.13;2064546;28;27757;-71
2022/08/01 02:56:03;;;;;;;4.05;2.85;;;;;;;16.83;100.00;101332.41;2064085;28;33453;-71
2022/08/01 02:57:07;;;;;;;3.30;2.38;;;;;;;16.83;100.00;101331.50;2071443;28;31806;-72
2022/08/01 02:58:12;;;;;;;6.03;3.22;;;;;;;16.80;100.00;101333.41;2072093;28;36124;-71
2022/08/01 02:59:19;;;;;;;4.18;3.03;;;;;;;16.80;100.00;101337.94;2071521;28;29628;-72
2022/08/01 03:00:24;;;;;;;4.30;3.13;;;;;;;16.80;100.00;101341.50;2065776;28;20157;-72
2022/08/01 03:01:26;;;;;;;4.57;3.50;;;;;;;16.79;100.00;101342.44;2063920;28;28199;-72
2022/08/01 03:02:30;;;;;;;3.47;3.05;;;;;;;16.79;100.00;101344.28;2072447;28;20046;-71
2022/08/01 03:03:33;;;;;;;5.05;2.90;;;;;;;16.78;100.00;101346.09;2072041;28;33002;-71
2022/08/01 03:04:39;;;;;;;3.75;3.30;;;;;;;16.77;100.00;101341.63;2071311;28;34987;-72
2022/08/01 03:05:43;;;;;;;3.38;3.03;;;;;;;16.78;100.00;101346.09;2064643;28;20023;-72
2022/08/01 03:06:47;;;;;;;6.07;3.33;;;;;;;16.77;100.00;101349.75;2063319;28;32924;-71
2022/08/01 03:07:52;;;;;;;3.58;3.17;;;;;;;16.77;100.00;101351.56;2064192;28;24500;-71
2022/08/01 03:08:56;;;;;;;5.25;3.45;;;;;;;16.77;100.00;101355.16;2064874;28;37186;-71
2022/08/01 03:09:58;;;;;;;3.65;3.22;;;;;;;16.77;100.00;101348.88;2063868;28;35693;-71
2022/08/01 03:11:01;;;;;;;5.95;3.33;;;;;;;16.76;100.00;101358.81;2063724;28;39381;-71
2022/08/01 03:12:13;;;;;;;4.55;3.22;;;;;;;16.77;100.00;101348.88;2064217;28;20923;-71
2022/08/01 03:13:16;;;;;;;4.82;3.20;;;;;;;16.76;100.00;101352.50;2065165;28;39252;-71
2022/08/01 03:14:21;;;;;;;6.75;3.17;;;;;;;16.75;100.00;101354.34;2064256;28;34479;-71
2022/08/01 03:15:27;;;;;;;4.28;2.65;;;;;;;16.75;100.00;101353.47;2071599;28;32188;-71
2022/08/01 03:16:33;;;;;;;3.83;3.00;;;;;;;16.75;100.00;101364.28;2072055;28;24534;-72
2022/08/01 03:17:40;;;;;;;4.35;3.30;;;;;;;16.74;100.00;101365.22;2072334;28;28735;-71
2022/08/01 03:18:44;;;;;;;2.90;2.63;;;;;;;16.74;100.00;101360.72;2063217;28;25946;-71
2022/08/01 03:19:48;;;;;;;3.78;2.97;;;;;;;16.73;100.00;101358.94;2057303;28;20043;-72
2022/08/01 03:20:52;;;;;;;4.40;3.33;;;;;;;16.74;100.00;101365.22;2055866;28;29567;-72
2022/08/01 03:21:58;;;;;;;3.85;2.97;;;;;;;16.72;100.00;101359.88;2056706;28;24288;-71
2022/08/01 03:23:07;;;;;;;3.45;2.67;;;;;;;16.72;100.00;101365.28;2071839;28;27063;-71
2022/08/01 03:24:10;;;;;;;4.10;3.65;;;;;;;16.71;100.00;101365.38;2071530;28;34759;-71
2022/08/01 03:25:14;;;;;;;6.60;3.08;;;;;;;16.72;100.00;101377.94;2072238;28;20173;-71
2022/08/01 03:26:19;;;;;;;4.88;3.08;;;;;;;16.72;100.00;101376.09;2071255;28;32717;-71
2022/08/01 03:27:24;;;;;;;3.83;3.22;;;;;;;16.71;100.00;101370.78;2064084;28;30611;-71
2022/08/01 03:28:26;;;;;;;3.58;3.20;;;;;;;16.71;100.00;101370.78;2072010;28;20515;-72
2022/08/01 03:29:32;;;;;;;3.60;3.30;;;;;;;16.70;100.00;101371.72;2071826;28;27608;-72
2022/08/01 03:30:37;;;;;;;3.50;3.08;;;;;;;16.68;100.00;101369.06;2079796;28;21056;-71
2022/08/01 03:31:44;;;;;;;4.13;2.92;;;;;;;16.69;100.00;101375.34;2071284;28;32932;-72
2022/08/01 03:32:46;;;;;;;3.92;3.20;;;;;;;16.68;100.00;101377.19;2063983;28;33174;-72
2022/08/01 03:33:48;;;;;;;3.55;3.25;;;;;;;16.69;100.00;101381.66;2071979;28;22176;-72
2022/08/01 03:34:50;;;;;;;5.13;3.15;;;;;;;16.66;100.00;101376.38;2071335;28;32745;-71
2022/08/01 03:35:55;;;;;;;6.05;3.10;;;;;;;16.66;100.00;101380.91;2064084;28;21846;-71
2022/08/01 03:37:07;;;;;;;3.22;2.92;;;;;;;16.64;100.00;101382.78;2063900;28;24021;-72
2022/08/01 03:38:13;;;;;;;5.53;3.08;;;;;;;16.63;100.00;101381.88;2065398;28;28294;-71
2022/08/01 03:39:22;;;;;;;4.40;2.78;;;;;;;16.63;100.00;101371.06;2065186;28;24119;-71
2022/08/01 03:40:31;;;;;;;6.85;3.20;;;;;;;16.64;100.00;101380.97;2071886;28;22503;-72
2022/08/01 03:41:40;;;;;;;5.45;3.10;;;;;;;16.63;100.00;101381.88;2072159;28;24499;-72
2022/08/01 03:42:48;;;;;;;6.65;3.10;;;;;;;16.63;100.00;101381.88;2071962;28;23505;-71
2022/08/01 03:43:58;;;;;;;5.85;2.80;;;;;;;16.64;100.00;101388.19;2065001;28;34076;-71
2022/08/01 03:45:18;;;;;;;3.13;2.50;;;;;;;16.57;100.00;101384.84;2056851;28;20952;-72
2022/08/01 03:46:47;;;;;;;4.35;2.40;;;;;;;16.57;100.00;101384.84;2066392;28;29653;-71
2022/08/01 03:47:54;;;;;;;4.97;2.58;;;;;;;16.57;100.00;101382.16;2069026;28;20093;-72
2022/08/01 03:49:03;;;;;;;5.85;2.20;;;;;;;16.55;100.00;101374.09;2079153;28;20811;-71
2022/08/01 03:50:10;;;;;;;5.63;2.40;;;;;;;16.53;100.00;101377.81;2071240;28;36934;-71
2022/08/01 03:51:14;;;;;;;3.35;2.38;;;;;;;16.53;100.00;101377.81;2065054;28;27552;-71
2022/08/01 03:52:17;;;;;;;4.05;2.60;;;;;;;16.51;100.00;101380.59;2063870;28;28714;-71
2022/08/01 03:53:24;;;;;;;5.10;2.83;;;;;;;16.52;100.00;101378.75;2064143;28;20082;-71
2022/08/01 03:54:33;;;;;;;4.25;2.28;;;;;;;16.51;100.00;101385.09;2071299;28;24626;-71
2022/08/01 03:55:39;;;;;;;2.95;2.28;;;;;;;16.52;100.00;101378.75;2071168;28;28789;-71
2022/08/01 03:56:42;;;;;;;3.10;2.25;;;;;;;16.52;100.00;101387.72;2065072;28;29775;-71
2022/08/01 03:57:46;;;;;;;4.30;2.28;;;;;;;16.48;100.00;101385.25;2071214;28;29943;-72
2022/08/01 03:58:49;;;;;;;2.97;2.00;;;;;;;16.47;100.00;101383.47;2071695;28;20887;-72
2022/08/01 03:59:51;;;;;;;3.15;2.05;;;;;;;16.49;100.00;101385.19;2070627;28;36823;-71
2022/08/01 04:00:57;;;;;;;5.68;2.00;;;;;;;16.50;100.00;101388.75;2071642;28;20238;-72
2022/08/01 04:01:59;;;;;;;3.58;2.15;;;;;;;16.46;100.00;101385.28;2063621;28;30635;-71
2022/08/01 04:03:05;;;;;;;3.30;2.10;;;;;;;16.47;100.00;101389.75;2071669;28;20077;-72
2022/08/01 04:04:07;;;;;;;2.58;1.77;;;;;;;16.47;100.00;101397.84;2071857;28;25398;-71
2022/08/01 04:05:10;;;;;;;4.95;2.00;;;;;;;16.47;100.00;101396.97;2071964;28;28609;-71
2022/08/01 04:06:13;;;;;;;2.50;1.85;;;;;;;16.46;100.00;101393.41;2071509;28;23760;-71
2022/08/01 04:07:30;;;;;;;4.18;2.05;;;;;;;16.45;100.00;101394.31;2072005;28;27930;-71
2022/08/01 04:08:37;;;;;;;6.25;2.10;;;;;;;16.44;100.00;101402.50;2072241;28;20886;-71
2022/08/01 04:09:39;;;;;;;3.97;1.58;;;;;;;16.39;100.00;101403.56;2071805;28;32701;-72
2022/08/01 04:10:41;;;;;;;4.30;1.48;;;;;;;16.42;100.00;101402.59;2071451;28;20050;-71
2022/08/01 04:11:43;;;;;;;4.78;1.65;;;;;;;16.41;100.00;101406.22;2063402;28;25542;-71
2022/08/01 04:12:45;;;;;;;5.10;1.60;;;;;;;16.39;100.00;101406.28;2062770;28;29117;-71
2022/08/01 04:13:49;;;;;;;5.35;1.48;;;;;;;16.40;100.00;101410.75;2071277;28;29450;-70
2022/08/01 04:14:54;;;;;;;4.60;1.70;;;;;;;16.36;100.00;101408.22;2071093;28;20103;-71
2022/08/01 04:15:55;;;;;;;4.70;1.45;;;;;;;16.35;100.00;101412.75;2063443;28;23267;-70
2022/08/01 04:16:57;;;;;;;2.45;1.35;;;;;;;16.32;100.00;101410.16;2070548;28;33645;-72
2022/08/01 04:17:59;;;;;;;3.17;1.30;;;;;;;16.34;100.00;101408.28;2072192;28;23183;-72
2022/08/01 04:19:01;;;;;;;4.55;1.27;;;;;;;16.34;100.00;101408.28;2072435;28;22575;-72
2022/08/01 04:20:06;;;;;;;3.90;1.10;;;;;;;16.31;100.00;101411.13;2071981;28;25767;-71
2022/08/01 04:21:08;;;;;;;5.68;1.10;;;;;;;16.32;100.00;101415.56;2070694;28;34675;-72
2022/08/01 04:22:13;;;;;;;2.85;1.05;;;;;;;16.29;100.00;101417.50;2071138;28;27349;-72
2022/08/01 04:23:19;;;;;;;6.05;1.20;;;;;;;16.26;100.00;101414.91;2071077;28;25826;-72
2022/08/01 04:24:25;;;;;;;5.25;1.20;;;;;;;16.26;100.00;101413.13;2064842;28;20066;-72
2022/08/01 04:25:36;;;;;;;3.38;1.08;;;;;;;16.25;100.00;101415.88;2064448;28;26656;-71
2022/08/01 04:26:41;;;;;;;4.70;1.10;;;;;;;16.24;100.00;101415.00;2065135;28;31205;-71
2022/08/01 04:27:48;;;;;;;6.43;1.10;;;;;;;16.21;100.00;101415.97;2064811;28;24794;-71
2022/08/01 04:28:54;;;;;;;4.70;1.02;;;;;;;16.21;100.00;101424.09;2064684;28;33415;-71
2022/08/01 04:30:00;;;;;;;7.07;0.90;;;;;;;16.22;100.00;101417.75;2063911;28;31701;-71
2022/08/01 04:31:05;;;;;;;4.32;0.90;;;;;;;16.22;100.00;101406.94;2063923;28;27299;-71
2022/08/01 04:32:11;;;;;;;5.38;1.10;;;;;;;16.20;100.00;101418.75;2071356;28;20128;-71
2022/08/01 04:33:17;;;;;;;7.18;1.33;;;;;;;16.21;100.00;101421.38;2070786;28;33504;-71
2022/08/01 04:34:26;;;;;;;5.85;1.27;;;;;;;16.21;100.00;101420.50;2065487;28;20904;-71
2022/08/01 04:35:29;;;;;;;6.60;1.00;;;;;;;16.19;100.00;101422.41;2064773;28;21838;-71
2022/08/01 04:36:55;;;;;;;6.35;1.20;;;;;;;16.22;100.00;101423.16;2066556;28;20049;-71
2022/08/01 04:37:59;;;;;;;4.13;1.20;;;;;;;16.22;100.00;101422.25;2066641;28;24818;-71
2022/08/01 04:39:04;;;;;;;2.90;0.80;;;;;;;16.21;100.00;101425.91;2071105;28;30122;-71
2022/08/01 04:40:11;;;;;;;4.65;1.23;;;;;;;16.23;100.00;101421.34;2070787;28;32843;-71
2022/08/01 04:41:14;;;;;;;6.30;1.00;;;;;;;16.22;100.00;101428.56;2071197;28;27451;-71
2022/08/01 04:42:16;;;;;;;3.97;0.90;;;;;;;16.23;100.00;101430.31;2070875;28;34675;-71
2022/08/01 04:43:18;;;;;;;3.92;1.08;;;;;;;16.24;100.00;101425.81;2063497;28;26360;-71
2022/08/01 04:44:23;;;;;;;6.30;1.17;;;;;;;16.23;100.00;101426.75;2063590;28;20998;-71
2022/08/01 04:45:26;;;;;;;7.35;1.10;;;;;;;16.23;100.00;101424.03;2070437;28;35300;-71
2022/08/01 04:46:29;;;;;;;6.30;1.17;;;;;;;16.24;100.00;101433.91;2071377;28;31787;-71
2022/08/01 04:47:34;;;;;;;9.23;1.40;;;;;;;16.26;100.00;101437.44;2063396;28;26642;-71
2022/08/01 04:48:40;;;;;;;6.75;1.52;;;;;;;16.29;100.00;101441.81;2071090;28;31266;-71
2022/08/01 04:49:45;;;;;;;8.27;1.50;;;;;;;16.24;100.00;101428.50;2071036;28;23334;-71
2022/08/01 04:50:49;;;;;;;5.80;1.33;;;;;;;16.26;100.00;101434.72;2063788;28;41577;-71
2022/08/01 04:51:57;;;;;;;4.63;1.30;;;;;;;16.29;100.00;101434.59;2071270;28;20120;-71
2022/08/01 04:52:59;;;;;;;5.80;1.48;;;;;;;16.28;100.00;101432.84;2071503;28;32398;-70
2022/08/01 04:54:03;;;;;;;4.78;1.50;;;;;;;16.29;100.00;101437.28;2071625;28;20124;-71
2022/08/01 04:55:06;;;;;;;5.05;1.30;;;;;;;16.29;100.00;101442.69;2072256;28;20042;-71
2022/08/01 04:56:08;;;;;;;5.75;1.70;;;;;;;16.27;100.00;101438.31;2071514;28;31915;-72
2022/08/01 04:57:12;;;;;;;6.07;1.73;;;;;;;16.24;100.00;101436.63;2071624;28;33871;-71
2022/08/01 04:58:17;;;;;;;8.68;1.92;;;;;;;16.25;100.00;101442.91;2071524;28;25655;-72
2022/08/01 04:59:40;;;;;;;6.82;1.70;;;;;;;16.22;100.00;101444.78;2071731;28;20038;-71
2022/08/01 05:00:44;;;;;;;11.65;2.05;;;;;;;16.23;100.00;101449.22;2071529;28;20051;-72
2022/08/01 05:01:50;;;;;;;7.25;1.65;;;;;;;16.23;100.00;101448.34;2061914;28;32925;-71
2022/08/01 05:02:52;;;;;;;5.97;1.88;;;;;;;16.23;100.00;101446.53;2056351;28;34163;-71
2022/08/01 05:03:54;;;;;;;4.93;1.38;;;;;;;16.23;100.00;101448.34;2062985;28;36115;-72
2022/08/01 05:04:57;;;;;;;6.88;2.53;;;;;;;16.22;100.00;101454.69;2062640;28;28861;-71
2022/08/01 05:05:58;;;;;;;7.60;1.90;;;;;;;16.16;100.00;101453.09;2072002;28;24248;-71